createdAt,value
2023-10-25T00:01:25.176Z,7.80
2023-10-25T00:03:53.101Z,8.18
2023-10-25T00:06:21.643Z,8.50
2023-10-25T00:08:49.412Z,7.93
2023-10-25T00:11:17.258Z,8.15
2023-10-25T00:13:46.301Z,7.25
2023-10-25T00:16:15.399Z,7.90
2023-10-25T00:18:43.251Z,7.80
2023-10-25T00:21:11.618Z,7.88
2023-10-25T00:23:39.381Z,8.95
2023-10-25T00:26:07.153Z,7.75
2023-10-25T00:28:34.980Z,8.98
2023-10-25T00:31:04.139Z,8.38
2023-10-25T00:33:31.945Z,8.32
2023-10-25T00:35:59.712Z,8.55
2023-10-25T00:38:27.483Z,9.00
2023-10-25T00:40:55.239Z,9.10
2023-10-25T00:43:24.017Z,8.57
2023-10-25T00:46:12.428Z,9.85
2023-10-25T00:48:42.319Z,11.25
2023-10-25T00:51:11.575Z,11.30
2023-10-25T00:53:42.228Z,9.88
2023-10-25T00:56:12.037Z,11.00
2023-10-25T00:58:40.704Z,11.18
2023-10-25T01:01:10.668Z,10.27
2023-10-25T01:03:43.598Z,10.43
2023-10-25T01:06:11.938Z,11.90
2023-10-25T01:08:40.103Z,11.65
2023-10-25T01:11:08.259Z,11.23
2023-10-25T01:13:36.002Z,11.77
2023-10-25T01:16:04.066Z,11.77
2023-10-25T01:18:33.419Z,11.60
2023-10-25T01:21:01.220Z,12.30
2023-10-25T01:23:30.351Z,12.35
2023-10-25T01:25:58.151Z,12.40
2023-10-25T01:28:25.939Z,11.65
2023-10-25T01:30:54.254Z,11.52
2023-10-25T01:33:22.049Z,11.38
2023-10-25T01:35:50.565Z,9.23
2023-10-25T01:38:18.312Z,9.85
2023-10-25T01:40:47.387Z,9.60
2023-10-25T01:43:15.131Z,9.40
2023-10-25T01:45:43.139Z,9.45
2023-10-25T01:48:10.950Z,10.10
2023-10-25T01:50:38.699Z,8.65
2023-10-25T01:53:06.445Z,9.25
2023-10-25T01:55:34.245Z,9.18
2023-10-25T01:58:03.376Z,10.43
2023-10-25T02:00:31.129Z,9.65
2023-10-25T02:02:59.036Z,9.50
2023-10-25T02:05:26.943Z,9.52
2023-10-25T02:07:54.724Z,9.80
2023-10-25T02:10:21.674Z,9.80
2023-10-25T02:12:49.576Z,9.38
2023-10-25T02:15:18.775Z,8.82
2023-10-25T02:17:46.608Z,10.13
2023-10-25T02:20:14.421Z,10.85
2023-10-25T02:22:42.178Z,10.30
2023-10-25T02:25:10.382Z,10.67
2023-10-25T02:27:38.301Z,11.57
2023-10-25T02:30:07.407Z,10.77
2023-10-25T02:32:36.933Z,11.23
2023-10-25T02:35:05.294Z,11.00
2023-10-25T02:37:33.037Z,11.10
2023-10-25T02:40:00.823Z,11.05
2023-10-25T02:42:28.633Z,11.73
2023-10-25T02:44:56.412Z,13.10
2023-10-25T02:47:24.211Z,11.77
2023-10-25T02:49:53.521Z,12.83
2023-10-25T02:52:21.331Z,12.02
2023-10-25T02:54:49.216Z,13.10
2023-10-25T02:57:16.963Z,12.73
2023-10-25T02:59:44.723Z,13.80
2023-10-25T03:02:14.302Z,13.53
2023-10-25T03:04:42.143Z,13.18
2023-10-25T03:07:11.341Z,13.65
2023-10-25T03:09:39.228Z,14.10
2023-10-25T03:12:07.482Z,14.70
2023-10-25T03:14:35.247Z,15.17
2023-10-25T03:17:03.191Z,14.27
2023-10-25T03:19:31.119Z,13.48
2023-10-25T03:21:58.963Z,12.83
2023-10-25T03:24:28.058Z,13.37
2023-10-25T03:26:56.121Z,13.63
2023-10-25T03:29:23.887Z,14.10
2023-10-25T03:31:51.767Z,13.20
2023-10-25T03:34:20.255Z,12.10
2023-10-25T03:36:48.122Z,12.75
2023-10-25T03:39:16.747Z,12.63
2023-10-25T03:41:46.023Z,14.43
2023-10-25T03:44:14.818Z,14.07
2023-10-25T03:46:42.605Z,12.97
2023-10-25T03:49:10.467Z,12.73
2023-10-25T03:51:38.468Z,13.10
2023-10-25T03:54:06.463Z,13.75
2023-10-25T03:56:34.287Z,14.03
2023-10-25T03:59:03.432Z,13.87
2023-10-25T04:01:31.293Z,14.17
2023-10-25T04:03:59.502Z,13.45
2023-10-25T04:06:27.317Z,14.02
2023-10-25T04:08:55.059Z,13.27
2023-10-25T04:11:22.849Z,13.13
2023-10-25T04:13:50.577Z,13.25
2023-10-25T04:16:19.786Z,14.10
2023-10-25T04:18:47.658Z,13.30
2023-10-25T04:21:15.757Z,11.65
2023-10-25T04:23:43.612Z,13.17
2023-10-25T04:26:13.202Z,12.63
2023-10-25T04:28:44.536Z,13.10
2023-10-25T04:31:12.977Z,13.20
2023-10-25T04:33:42.240Z,12.87
2023-10-25T04:36:10.740Z,12.77
2023-10-25T04:38:38.537Z,12.80
2023-10-25T04:41:06.338Z,13.05
2023-10-25T04:43:34.142Z,12.27
2023-10-25T04:46:04.494Z,12.70
2023-10-25T04:48:32.739Z,13.13
2023-10-25T04:51:04.990Z,14.40
2023-10-25T04:53:32.777Z,12.73
2023-10-25T04:56:00.966Z,13.77
2023-10-25T04:58:28.977Z,12.97
2023-10-25T05:00:56.813Z,13.70
2023-10-25T05:03:24.775Z,14.60
2023-10-25T05:05:52.954Z,14.83
2023-10-25T05:08:22.664Z,13.90
2023-10-25T05:10:54.995Z,12.97
2023-10-25T05:13:23.310Z,13.50
2023-10-25T05:15:51.629Z,14.23
2023-10-25T05:18:19.940Z,13.87
2023-10-25T05:20:48.370Z,14.43
2023-10-25T05:23:16.696Z,14.20
2023-10-25T05:25:46.492Z,14.20
2023-10-25T05:28:15.073Z,14.67
2023-10-25T05:30:43.428Z,13.77
2023-10-25T05:33:11.883Z,15.23
2023-10-25T05:35:40.338Z,13.90
2023-10-25T05:38:08.581Z,14.37
2023-10-25T05:40:37.034Z,14.80
2023-10-25T05:43:09.107Z,14.93
2023-10-25T05:45:37.670Z,15.50
2023-10-25T05:48:10.596Z,13.60
2023-10-25T05:50:38.932Z,13.57
2023-10-25T05:53:07.241Z,15.20
2023-10-25T05:55:35.780Z,15.80
2023-10-25T05:58:04.172Z,14.70
2023-10-25T06:00:34.013Z,15.20
2023-10-25T06:03:06.206Z,15.43
2023-10-25T06:05:36.401Z,15.37
2023-10-25T06:08:04.752Z,14.80
2023-10-25T06:10:33.329Z,15.83
2023-10-25T06:13:01.647Z,17.77
2023-10-25T06:15:29.430Z,16.40
2023-10-25T06:17:58.633Z,17.27
2023-10-25T06:20:26.500Z,17.43
2023-10-25T06:22:56.700Z,17.00
2023-10-25T06:25:25.728Z,17.40
2023-10-25T06:27:53.554Z,16.80
2023-10-25T06:30:21.495Z,16.00
2023-10-25T06:32:49.554Z,15.63
2023-10-25T06:35:18.694Z,16.33
2023-10-25T06:37:47.015Z,15.37
2023-10-25T06:40:15.864Z,17.07
2023-10-25T06:42:44.188Z,16.10
2023-10-25T06:45:16.085Z,16.83
2023-10-25T06:47:44.844Z,16.60
2023-10-25T06:50:14.268Z,16.67
2023-10-25T06:52:43.963Z,16.27
2023-10-25T06:55:13.441Z,15.70
2023-10-25T06:57:41.675Z,15.33
2023-10-25T07:00:10.698Z,15.63
2023-10-25T07:02:43.482Z,15.63
2023-10-25T07:05:13.740Z,15.60
2023-10-25T07:07:45.042Z,16.17
2023-10-25T07:10:14.791Z,15.80
2023-10-25T07:12:42.657Z,16.07
2023-10-25T07:15:11.445Z,16.53
2023-10-25T07:17:39.615Z,15.57
2023-10-25T07:20:08.886Z,16.80
2023-10-25T07:22:36.727Z,16.50
2023-10-25T07:25:06.843Z,14.93
2023-10-25T07:27:34.864Z,15.60
2023-10-25T07:30:02.590Z,16.10
2023-10-25T07:32:32.071Z,15.87
2023-10-25T07:34:59.877Z,16.60
2023-10-25T07:37:27.698Z,17.23
2023-10-25T07:39:55.481Z,16.37
2023-10-25T07:42:24.617Z,15.90
2023-10-25T07:44:52.425Z,16.00
2023-10-25T07:47:21.903Z,16.13
2023-10-25T07:49:49.768Z,15.50
2023-10-25T07:52:18.555Z,16.03
2023-10-25T07:54:46.685Z,15.47
2023-10-25T07:57:13.851Z,15.77
2023-10-25T07:59:46.267Z,14.50
2023-10-25T08:02:14.014Z,15.13
2023-10-25T08:04:42.474Z,13.47
2023-10-25T08:07:11.498Z,13.23
2023-10-25T08:09:41.204Z,14.70
2023-10-25T08:12:09.725Z,14.03
2023-10-25T08:14:38.018Z,13.90
2023-10-25T08:17:07.240Z,13.43
2023-10-25T08:19:35.051Z,13.33
2023-10-25T08:22:06.124Z,13.63
2023-10-25T08:24:34.412Z,13.00
2023-10-25T08:27:02.152Z,13.10
2023-10-25T08:29:29.964Z,13.50
2023-10-25T08:31:57.732Z,12.37
2023-10-25T08:34:26.828Z,13.53
2023-10-25T08:36:55.611Z,12.13
2023-10-25T08:39:23.522Z,11.93
2023-10-25T08:41:53.523Z,13.67
2023-10-25T08:44:22.123Z,14.07
2023-10-25T08:46:52.125Z,16.07
2023-10-25T08:49:19.933Z,12.43
2023-10-25T08:51:50.586Z,15.93
2023-10-25T08:54:21.930Z,17.53
2023-10-25T08:56:50.133Z,12.30
2023-10-25T08:59:18.315Z,12.13
2023-10-25T09:01:46.119Z,12.67
2023-10-25T09:04:14.031Z,13.60
2023-10-25T09:06:41.925Z,12.40
2023-10-25T09:09:11.337Z,12.10
2023-10-25T09:11:41.514Z,11.47
2023-10-25T09:14:11.145Z,11.53
2023-10-25T09:16:42.208Z,12.23
2023-10-25T09:19:09.955Z,11.33
2023-10-25T09:21:37.923Z,11.77
2023-10-25T09:24:09.062Z,13.57
2023-10-25T09:26:41.098Z,11.80
2023-10-25T09:29:10.982Z,11.18
2023-10-25T09:31:39.833Z,12.63
2023-10-25T09:34:10.879Z,11.77
2023-10-25T09:36:39.174Z,10.93
2023-10-25T09:39:07.115Z,10.10
2023-10-25T09:41:40.445Z,10.00
2023-10-25T09:44:19.478Z,9.32
2023-10-25T09:46:48.483Z,9.43
2023-10-25T09:49:17.482Z,9.90
2023-10-25T09:52:02.438Z,9.57
2023-10-25T09:54:33.328Z,9.90
2023-10-25T09:57:04.082Z,9.57
2023-10-25T09:59:33.985Z,8.80
2023-10-25T10:02:03.172Z,8.90
2023-10-25T10:04:41.216Z,8.75
2023-10-25T10:07:19.155Z,7.38
2023-10-25T10:09:54.125Z,7.32
2023-10-25T10:12:23.606Z,6.85
2023-10-25T10:14:52.881Z,7.03
2023-10-25T10:17:20.859Z,6.40
2023-10-25T10:19:50.584Z,6.50
2023-10-25T10:22:19.992Z,5.40
2023-10-25T10:24:49.684Z,5.82
2023-10-25T10:27:19.408Z,6.75
2023-10-25T10:29:50.054Z,5.40
2023-10-25T10:32:18.863Z,4.85
2023-10-25T10:34:49.328Z,5.97
2023-10-25T10:37:18.348Z,5.60
2023-10-25T10:40:15.019Z,5.85
2023-10-25T10:42:43.803Z,6.63
2023-10-25T10:45:18.845Z,5.90
2023-10-25T10:47:53.260Z,6.45
2023-10-25T10:50:23.200Z,6.80
2023-10-25T10:52:52.871Z,6.95
2023-10-25T10:55:21.830Z,8.00
2023-10-25T11:00:23.397Z,7.00
2023-10-25T11:02:52.698Z,7.68
2023-10-25T11:05:23.690Z,6.85
2023-10-25T11:07:52.624Z,5.85
2023-10-25T11:10:21.027Z,5.68
2023-10-25T11:12:49.059Z,5.20
2023-10-25T11:15:19.611Z,5.53
2023-10-25T11:17:48.803Z,4.75
2023-10-25T11:20:16.609Z,4.63
2023-10-25T11:22:44.360Z,4.47
2023-10-25T11:25:12.720Z,4.40
2023-10-25T11:27:42.643Z,4.57
2023-10-25T11:30:11.252Z,4.30
2023-10-25T11:32:39.090Z,5.30
2023-10-25T11:35:09.479Z,4.70
2023-10-25T11:37:44.178Z,4.20
2023-10-25T11:40:12.450Z,3.90
2023-10-25T11:42:40.234Z,4.78
2023-10-25T11:45:09.625Z,4.53
2023-10-25T11:47:38.572Z,4.32
2023-10-25T11:50:09.256Z,4.82
2023-10-25T11:52:37.056Z,4.10
2023-10-25T11:55:05.135Z,4.20
2023-10-25T11:57:35.021Z,3.70
2023-10-25T12:00:03.836Z,3.85
2023-10-25T12:02:31.809Z,3.30
2023-10-25T12:05:00.667Z,3.50
2023-10-25T12:07:32.025Z,3.88
2023-10-25T12:10:00.165Z,4.93
2023-10-25T12:12:28.022Z,3.63
2023-10-25T12:14:55.797Z,3.90
2023-10-25T12:17:23.651Z,4.15
2023-10-25T12:19:52.669Z,3.78
2023-10-25T12:22:20.928Z,3.75
2023-10-25T12:24:50.303Z,3.33
2023-10-25T12:27:18.290Z,3.15
2023-10-25T12:29:46.300Z,5.22
2023-10-25T12:32:14.145Z,3.38
2023-10-25T12:34:42.857Z,4.47
2023-10-25T12:37:11.207Z,3.42
2023-10-25T12:39:39.113Z,3.13
2023-10-25T12:42:08.526Z,2.90
2023-10-25T12:44:36.396Z,2.00
2023-10-25T12:47:04.882Z,2.13
2023-10-25T12:49:32.783Z,2.35
2023-10-25T12:52:02.423Z,2.88
2023-10-25T12:54:30.202Z,2.22
2023-10-25T12:56:58.550Z,2.17
2023-10-25T12:59:27.984Z,2.90
2023-10-25T13:01:56.033Z,3.05
2023-10-25T13:04:24.082Z,3.58
2023-10-25T13:06:54.132Z,3.20
2023-10-25T13:09:22.400Z,3.60
2023-10-25T13:11:51.334Z,4.18
2023-10-25T13:14:20.078Z,2.50
2023-10-25T13:16:49.450Z,2.70
2023-10-25T13:19:17.781Z,3.22
2023-10-25T13:21:45.775Z,3.85
2023-10-25T13:24:13.662Z,2.47
2023-10-25T13:26:41.969Z,2.22
2023-10-25T13:29:12.464Z,2.15
2023-10-25T13:31:41.240Z,2.50
2023-10-25T13:34:10.426Z,2.05
2023-10-25T13:36:39.106Z,1.80
2023-10-25T13:39:07.888Z,2.22
2023-10-25T13:41:35.785Z,2.10
2023-10-25T13:44:03.722Z,1.90
2023-10-25T13:46:31.699Z,1.73
2023-10-25T13:48:59.524Z,1.83
2023-10-25T13:51:28.599Z,1.88
2023-10-25T13:53:56.464Z,1.90
2023-10-25T13:56:24.241Z,2.33
2023-10-25T13:58:52.059Z,1.67
2023-10-25T14:01:19.965Z,2.50
2023-10-25T14:03:47.985Z,2.30
2023-10-25T14:06:16.617Z,2.40
2023-10-25T14:08:46.144Z,2.35
2023-10-25T14:11:14.101Z,1.88
2023-10-25T14:13:41.942Z,1.90
2023-10-25T14:16:11.162Z,2.97
2023-10-25T14:18:39.381Z,3.60
2023-10-25T14:21:13.423Z,2.20
2023-10-25T14:23:43.230Z,2.00
2023-10-25T14:26:12.355Z,3.10
2023-10-25T14:28:40.376Z,2.95
2023-10-25T14:31:08.193Z,1.88
2023-10-25T14:33:36.282Z,3.10
2023-10-25T14:36:04.423Z,2.60
2023-10-25T14:38:32.287Z,1.80
2023-10-25T14:41:00.469Z,1.83
2023-10-25T14:43:29.524Z,2.05
2023-10-25T14:45:58.043Z,2.95
2023-10-25T14:48:25.925Z,3.70
2023-10-25T14:50:53.779Z,2.90
2023-10-25T14:53:21.674Z,2.60
2023-10-25T14:55:49.712Z,2.47
2023-10-25T14:58:17.491Z,2.10
2023-10-25T15:00:46.738Z,2.65
2023-10-25T15:03:17.319Z,2.50
2023-10-25T15:05:45.242Z,1.73
2023-10-25T15:08:13.137Z,2.03
2023-10-25T15:10:40.889Z,2.60
2023-10-25T15:13:08.774Z,6.20
2023-10-25T15:15:36.618Z,4.40
2023-10-25T15:18:06.408Z,3.53
2023-10-25T15:20:36.881Z,4.90
2023-10-25T15:23:04.958Z,6.25
2023-10-25T15:25:32.752Z,6.95
2023-10-25T15:28:03.749Z,6.38
2023-10-25T15:30:32.844Z,5.30
2023-10-25T15:33:00.840Z,4.47
2023-10-25T15:35:31.501Z,4.90
2023-10-25T15:37:59.304Z,4.70
2023-10-25T15:40:30.900Z,4.10
2023-10-25T15:43:01.504Z,3.75
2023-10-25T15:45:29.542Z,3.40
2023-10-25T15:47:58.297Z,3.00
2023-10-25T15:50:26.425Z,3.30
2023-10-25T15:52:57.555Z,3.33
2023-10-25T15:55:31.163Z,2.92
2023-10-25T15:58:00.535Z,3.80
2023-10-25T16:00:30.307Z,4.07
2023-10-25T16:02:58.247Z,4.00
2023-10-25T16:05:26.264Z,3.87
2023-10-25T16:07:55.422Z,4.67
2023-10-25T16:10:24.412Z,5.93
2023-10-25T16:12:52.377Z,5.47
2023-10-25T16:15:20.329Z,5.33
2023-10-25T16:17:49.063Z,6.40
2023-10-25T16:20:17.168Z,5.90
2023-10-25T16:22:46.263Z,5.13
2023-10-25T16:25:15.799Z,5.07
2023-10-25T16:27:43.672Z,5.30
2023-10-25T16:30:13.833Z,5.97
2023-10-25T16:32:41.845Z,4.83
2023-10-25T16:35:11.068Z,6.27
2023-10-25T16:37:39.024Z,6.50
2023-10-25T16:40:08.100Z,6.33
2023-10-25T16:42:37.369Z,5.80
2023-10-25T16:45:05.736Z,5.90
2023-10-25T16:47:33.695Z,5.37
2023-10-25T16:50:01.970Z,6.00
2023-10-25T16:52:30.039Z,5.60
2023-10-25T16:54:58.336Z,5.97
2023-10-25T16:57:26.383Z,6.53
2023-10-25T16:59:55.798Z,6.43
2023-10-25T17:02:23.701Z,7.53
2023-10-25T17:04:51.634Z,7.90
2023-10-25T17:07:19.604Z,7.67
2023-10-25T17:09:47.781Z,7.07
2023-10-25T17:12:15.689Z,6.90
2023-10-25T17:14:44.855Z,7.73
2023-10-25T17:17:14.060Z,7.43
2023-10-25T17:19:41.910Z,9.50
2023-10-25T17:22:09.921Z,9.40
2023-10-25T17:24:38.788Z,12.30
2023-10-25T17:27:07.006Z,12.87
2023-10-25T17:29:34.864Z,11.13
2023-10-25T17:32:02.737Z,8.13
2023-10-25T17:34:32.448Z,8.03
2023-10-25T17:37:00.413Z,8.10
2023-10-25T17:39:28.271Z,7.10
2023-10-25T17:41:56.113Z,8.03
2023-10-25T17:44:23.984Z,7.43
2023-10-25T17:46:53.405Z,7.37
2023-10-25T17:49:21.446Z,7.63
2023-10-25T17:51:51.557Z,7.57
2023-10-25T17:54:19.409Z,8.53
2023-10-25T17:56:47.245Z,9.37
2023-10-25T17:59:15.144Z,7.73
2023-10-25T18:01:42.952Z,10.50
2023-10-25T18:04:11.020Z,8.50
2023-10-25T18:06:55.243Z,8.33
2023-10-25T18:09:28.286Z,8.60
2023-10-25T18:11:56.086Z,9.00
2023-10-25T18:14:23.930Z,10.80
2023-10-25T18:16:51.823Z,10.73
2023-10-25T18:19:22.657Z,10.03
2023-10-25T18:21:50.499Z,9.93
2023-10-25T18:24:18.643Z,9.07
2023-10-25T18:26:47.853Z,8.70
2023-10-25T18:29:15.609Z,8.93
2023-10-25T18:32:00.348Z,9.57
2023-10-25T18:34:31.556Z,9.77
2023-10-25T18:36:59.836Z,9.47
2023-10-25T18:39:27.847Z,10.90
2023-10-25T18:41:57.198Z,9.37
2023-10-25T18:44:25.096Z,9.77
2023-10-25T18:46:53.054Z,10.03
2023-10-25T18:49:20.998Z,10.13
2023-10-25T18:51:48.818Z,10.60
2023-10-25T18:54:20.410Z,12.00
2023-10-25T18:56:48.359Z,12.27
2023-10-25T18:59:17.576Z,12.37
2023-10-25T19:01:46.126Z,11.97
2023-10-25T19:04:14.081Z,11.70
2023-10-25T19:06:46.805Z,11.23
2023-10-25T19:09:16.022Z,10.53
2023-10-25T19:11:43.998Z,10.33
2023-10-25T19:14:11.830Z,10.60
2023-10-25T19:16:42.637Z,11.40
2023-10-25T19:19:10.497Z,10.90
2023-10-25T19:21:38.376Z,10.10
2023-10-25T19:24:07.115Z,10.70
2023-10-25T19:26:47.686Z,10.47
2023-10-25T19:29:17.311Z,11.00
2023-10-25T19:31:46.952Z,9.77
2023-10-25T19:34:15.014Z,9.90
2023-10-25T19:36:45.124Z,10.13
2023-10-25T19:39:13.345Z,9.43
2023-10-25T19:41:41.224Z,9.47
2023-10-25T19:44:09.376Z,9.90
2023-10-25T19:46:37.417Z,9.30
2023-10-25T19:49:06.969Z,9.43
2023-10-25T19:51:36.333Z,9.97
2023-10-25T19:54:04.659Z,9.70
2023-10-25T19:56:33.722Z,8.80
2023-10-25T19:59:01.638Z,8.93
2023-10-25T20:01:29.612Z,9.57
2023-10-25T20:03:59.936Z,9.23
2023-10-25T20:06:29.364Z,9.03
2023-10-25T20:08:58.443Z,8.70
2023-10-25T20:11:26.445Z,8.57
2023-10-25T20:13:54.384Z,9.07
2023-10-25T20:16:22.275Z,8.33
2023-10-25T20:18:51.381Z,9.20
2023-10-25T20:21:19.223Z,8.77
2023-10-25T20:23:48.528Z,8.20
2023-10-25T20:26:26.150Z,8.20
2023-10-25T20:29:01.213Z,7.83
2023-10-25T20:31:29.002Z,8.93
2023-10-25T20:33:56.993Z,8.07
2023-10-25T20:36:25.027Z,8.20
2023-10-25T20:38:54.211Z,8.60
2023-10-25T20:41:22.190Z,8.67
2023-10-25T20:43:49.989Z,8.30
2023-10-25T20:46:21.000Z,8.33
2023-10-25T20:48:48.934Z,9.00
2023-10-25T20:51:19.504Z,8.67
2023-10-25T20:53:47.414Z,8.60
2023-10-25T20:56:16.553Z,8.77
2023-10-25T20:58:44.371Z,9.37
2023-10-25T21:01:12.266Z,9.23
2023-10-25T21:03:40.231Z,9.50
2023-10-25T21:06:08.359Z,9.00
2023-10-25T21:08:36.151Z,9.20
2023-10-25T21:11:04.375Z,8.80
2023-10-25T21:13:33.503Z,9.20
2023-10-25T21:16:01.290Z,9.50
2023-10-25T21:18:29.074Z,9.37
2023-10-25T21:20:57.151Z,9.20
2023-10-25T21:23:25.043Z,8.17
2023-10-25T21:25:52.877Z,9.67
2023-10-25T21:28:20.636Z,9.00
2023-10-25T21:30:49.744Z,9.10
2023-10-25T21:33:17.549Z,9.97
2023-10-25T21:35:45.407Z,9.37
2023-10-25T21:38:13.164Z,9.20
2023-10-25T21:40:41.579Z,9.23
2023-10-25T21:43:09.462Z,8.73
2023-10-25T21:45:37.206Z,8.80
2023-10-25T21:48:06.724Z,8.13
2023-10-25T21:50:34.586Z,8.47
2023-10-25T21:53:02.380Z,8.97
2023-10-25T21:55:32.056Z,9.40
2023-10-25T21:59:46.314Z,8.33
2023-10-25T22:00:47.880Z,8.70
2023-10-25T22:03:17.657Z,8.57
2023-10-25T22:05:47.403Z,9.03
2023-10-25T22:08:15.438Z,8.80
2023-10-25T22:10:43.234Z,9.07
2023-10-25T22:13:12.644Z,9.87
2023-10-25T22:15:40.644Z,9.13
2023-10-25T22:18:08.576Z,8.60
2023-10-25T22:20:37.787Z,9.53
2023-10-25T22:23:05.579Z,9.00
2023-10-25T22:25:33.311Z,9.53
2023-10-25T22:28:03.035Z,9.97
2023-10-25T22:30:30.849Z,10.20
2023-10-25T22:32:58.722Z,9.57
2023-10-25T22:35:26.651Z,8.50
2023-10-25T22:37:55.768Z,9.47
2023-10-25T22:40:23.714Z,10.03
2023-10-25T22:42:51.510Z,9.50
2023-10-25T22:45:19.327Z,9.70
2023-10-25T22:47:47.226Z,8.87
2023-10-25T22:50:15.106Z,9.70
2023-10-25T22:52:42.852Z,9.00
2023-10-25T22:55:12.040Z,9.90
2023-10-25T22:57:40.044Z,8.87
2023-10-25T23:00:09.422Z,9.37
2023-10-25T23:02:37.306Z,10.13
2023-10-25T23:05:05.681Z,10.57
2023-10-25T23:07:33.424Z,10.17
2023-10-25T23:10:01.181Z,9.87
2023-10-25T23:12:30.416Z,11.10
2023-10-25T23:14:58.205Z,10.80
2023-10-25T23:17:25.946Z,11.30
2023-10-25T23:19:53.736Z,11.43
2023-10-25T23:22:21.961Z,12.00
2023-10-25T23:24:49.739Z,11.73
2023-10-25T23:27:17.563Z,12.03
2023-10-25T23:29:46.738Z,13.83
2023-10-25T23:32:14.520Z,12.90
2023-10-25T23:34:42.713Z,11.97
2023-10-25T23:37:11.034Z,11.70
2023-10-25T23:39:38.929Z,13.33
2023-10-25T23:42:06.892Z,12.27
2023-10-25T23:44:34.713Z,12.97
2023-10-25T23:47:03.884Z,12.87
2023-10-25T23:49:31.690Z,12.93
2023-10-25T23:51:58.503Z,13.50
2023-10-25T23:54:52.404Z,13.27
2023-10-25T23:57:13.989Z,13.33
2023-10-25T23:59:41.971Z,13.00
